createdAt,value
2019-02-24T00:02:02.755Z,41.10
2019-02-24T00:04:31.287Z,38.53
2019-02-24T00:06:59.799Z,35.47
2019-02-24T00:09:28.352Z,37.27
2019-02-24T00:11:57.097Z,33.90
2019-02-24T00:14:25.711Z,36.30
2019-02-24T00:16:54.395Z,38.30
2019-02-24T00:19:23.048Z,37.70
2019-02-24T00:21:51.622Z,40.67
2019-02-24T00:24:20.390Z,41.07
2019-02-24T00:26:49.061Z,37.63
2019-02-24T00:29:17.782Z,39.60
2019-02-24T00:31:46.576Z,40.60
2019-02-24T00:34:15.178Z,40.60
2019-02-24T00:36:44.000Z,41.63
2019-02-24T00:39:12.723Z,41.17
2019-02-24T00:41:41.344Z,37.37
2019-02-24T00:44:09.835Z,33.83
2019-02-24T00:46:38.377Z,38.53
2019-02-24T00:49:06.952Z,39.63
2019-02-24T00:51:35.707Z,34.93
2019-02-24T00:54:04.282Z,36.33
2019-02-24T00:56:32.856Z,35.40
2019-02-24T00:59:01.455Z,37.97
2019-02-24T01:01:30.000Z,35.53
2019-02-24T01:03:58.570Z,33.97
2019-02-24T01:06:27.212Z,33.77
2019-02-24T01:08:55.694Z,34.80
2019-02-24T01:11:24.307Z,33.80
2019-02-24T01:13:54.003Z,37.97
2019-02-24T01:16:22.879Z,39.70
2019-02-24T01:18:51.410Z,36.57
2019-02-24T01:21:19.958Z,38.90
2019-02-24T01:23:48.516Z,38.70
2019-02-24T01:26:17.008Z,36.00
2019-02-24T01:28:45.544Z,37.73
2019-02-24T01:31:14.104Z,37.53
2019-02-24T01:33:42.622Z,38.33
2019-02-24T01:36:11.151Z,44.97
2019-02-24T01:38:39.664Z,38.13
2019-02-24T01:41:08.130Z,36.77
2019-02-24T01:43:36.695Z,37.10
2019-02-24T01:46:05.171Z,33.63
2019-02-24T01:48:33.659Z,37.03
2019-02-24T01:51:02.145Z,37.07
2019-02-24T01:53:30.608Z,38.47
2019-02-24T01:55:59.254Z,42.50
2019-02-24T01:58:34.994Z,37.73
2019-02-24T02:00:58.516Z,39.87
2019-02-24T02:03:27.051Z,40.73
2019-02-24T02:05:55.603Z,35.00
2019-02-24T02:08:24.142Z,37.07
2019-02-24T02:10:52.794Z,36.70
2019-02-24T02:13:21.359Z,33.50
2019-02-24T02:15:50.003Z,36.70
2019-02-24T02:18:18.571Z,33.67
2019-02-24T02:20:47.087Z,37.40
2019-02-24T02:23:16.157Z,38.23
2019-02-24T02:25:45.081Z,40.43
2019-02-24T02:28:13.775Z,35.83
2019-02-24T02:30:42.377Z,38.53
2019-02-24T02:33:10.962Z,37.20
2019-02-24T02:35:39.662Z,36.60
2019-02-24T02:38:08.296Z,38.23
2019-02-24T02:40:36.941Z,36.37
2019-02-24T02:43:05.508Z,42.13
2019-02-24T02:45:34.213Z,35.97
2019-02-24T02:48:02.746Z,38.50
2019-02-24T02:50:31.323Z,39.60
2019-02-24T02:52:59.870Z,42.80
2019-02-24T02:55:28.534Z,39.97
2019-02-24T02:57:57.191Z,36.93
2019-02-24T03:00:30.731Z,35.73
2019-02-24T03:02:59.264Z,37.00
2019-02-24T03:05:27.836Z,36.83
2019-02-24T03:07:57.940Z,37.83
2019-02-24T03:10:26.401Z,36.67
2019-02-24T03:12:54.893Z,36.70
2019-02-24T03:15:23.364Z,36.13
2019-02-24T03:17:51.934Z,38.77
2019-02-24T03:20:20.474Z,39.93
2019-02-24T03:22:49.046Z,42.07
2019-02-24T03:25:17.838Z,37.80
2019-02-24T03:27:46.385Z,37.20
2019-02-24T03:30:15.033Z,36.70
2019-02-24T03:32:43.603Z,39.77
2019-02-24T03:35:12.167Z,40.27
2019-02-24T03:37:40.663Z,36.47
2019-02-24T03:40:09.273Z,35.20
2019-02-24T03:42:37.878Z,37.03
2019-02-24T03:45:08.988Z,38.40
2019-02-24T03:47:37.489Z,35.90
2019-02-24T03:50:08.137Z,33.87
2019-02-24T03:52:36.854Z,37.83
2019-02-24T03:55:05.858Z,34.93
2019-02-24T03:57:34.665Z,33.97
2019-02-24T04:00:03.693Z,35.47
2019-02-24T04:02:32.229Z,34.10
2019-02-24T04:05:00.870Z,36.40
2019-02-24T04:07:29.508Z,35.67
2019-02-24T04:09:58.003Z,36.63
2019-02-24T04:12:26.491Z,35.87
2019-02-24T04:14:54.956Z,34.87
2019-02-24T04:17:23.455Z,37.13
2019-02-24T04:19:51.916Z,37.93
2019-02-24T04:22:20.479Z,41.17
2019-02-24T04:24:48.949Z,37.23
2019-02-24T04:27:17.447Z,36.93
2019-02-24T04:29:45.923Z,37.07
2019-02-24T04:32:14.461Z,39.17
2019-02-24T04:34:43.036Z,38.33
2019-02-24T04:37:11.499Z,40.03
2019-02-24T04:39:39.997Z,39.70
2019-02-24T04:42:08.452Z,37.00
2019-02-24T04:44:36.953Z,38.60
2019-02-24T04:47:05.507Z,34.73
2019-02-24T04:49:34.004Z,34.70
2019-02-24T04:52:02.472Z,36.67
2019-02-24T04:54:31.004Z,35.47
2019-02-24T04:56:59.471Z,35.43
2019-02-24T04:59:34.779Z,36.97
2019-02-24T05:01:58.236Z,35.43
2019-02-24T05:04:26.702Z,35.30
2019-02-24T05:06:55.216Z,35.77
2019-02-24T05:09:23.751Z,38.90
2019-02-24T05:11:52.213Z,41.67
2019-02-24T05:14:20.988Z,41.70
2019-02-24T05:16:49.561Z,38.10
2019-02-24T05:19:18.132Z,38.07
2019-02-24T05:21:46.699Z,36.20
2019-02-24T05:24:15.200Z,35.50
2019-02-24T05:26:43.745Z,39.13
2019-02-24T05:29:12.283Z,40.40
2019-02-24T05:31:40.768Z,37.30
2019-02-24T05:34:09.241Z,40.20
2019-02-24T05:36:37.799Z,36.70
2019-02-24T05:39:06.372Z,37.63
2019-02-24T05:41:34.957Z,37.30
2019-02-24T05:44:03.496Z,35.13
2019-02-24T05:46:32.065Z,40.10
2019-02-24T05:49:00.605Z,39.70
2019-02-24T05:51:29.176Z,41.47
2019-02-24T05:53:57.715Z,37.90
2019-02-24T05:56:26.244Z,36.43
2019-02-24T05:58:54.759Z,35.40
2019-02-24T06:01:23.274Z,36.73
2019-02-24T06:03:51.741Z,36.63
2019-02-24T06:06:20.201Z,37.37
2019-02-24T06:08:48.777Z,37.20
2019-02-24T06:11:17.240Z,40.40
2019-02-24T06:13:45.743Z,40.17
2019-02-24T06:16:14.291Z,40.93
2019-02-24T06:18:42.880Z,40.93
2019-02-24T06:21:11.417Z,39.77
2019-02-24T06:23:39.996Z,42.00
2019-02-24T06:26:08.496Z,41.50
2019-02-24T06:28:37.043Z,37.63
2019-02-24T06:31:05.691Z,36.20
2019-02-24T06:33:34.230Z,39.77
2019-02-24T06:36:02.793Z,36.33
2019-02-24T06:38:31.296Z,38.10
2019-02-24T06:40:59.988Z,39.97
2019-02-24T06:43:28.628Z,35.77
2019-02-24T06:45:57.120Z,36.97
2019-02-24T06:48:25.701Z,44.30
2019-02-24T06:50:55.881Z,47.77
2019-02-24T06:53:24.386Z,41.10
2019-02-24T06:55:52.946Z,40.10
2019-02-24T06:58:21.548Z,38.30
2019-02-24T07:00:50.005Z,42.67
2019-02-24T07:03:18.493Z,40.83
2019-02-24T07:05:46.955Z,45.57
2019-02-24T07:08:15.450Z,46.60
2019-02-24T07:10:43.918Z,43.13
2019-02-24T07:13:12.489Z,38.97
2019-02-24T07:15:40.952Z,37.60
2019-02-24T07:18:09.454Z,34.10
2019-02-24T07:20:37.947Z,35.10
2019-02-24T07:23:06.407Z,33.87
2019-02-24T07:25:34.972Z,35.63
2019-02-24T07:28:03.536Z,30.43
2019-02-24T07:30:32.089Z,32.70
2019-02-24T07:33:00.602Z,34.90
2019-02-24T07:35:29.123Z,35.93
2019-02-24T07:37:57.625Z,32.97
2019-02-24T07:40:26.148Z,33.63
2019-02-24T07:42:54.627Z,34.27
2019-02-24T07:45:23.215Z,36.17
2019-02-24T07:47:52.646Z,35.93
2019-02-24T07:50:21.211Z,36.43
2019-02-24T07:52:49.676Z,32.93
2019-02-24T07:55:18.179Z,34.07
2019-02-24T07:57:46.640Z,30.03
2019-02-24T08:00:15.271Z,33.50
2019-02-24T08:02:43.748Z,34.80
2019-02-24T08:05:12.316Z,30.40
2019-02-24T08:07:40.813Z,32.53
2019-02-24T08:10:09.380Z,30.70
2019-02-24T08:12:37.840Z,31.20
2019-02-24T08:15:08.277Z,28.60
2019-02-24T08:17:36.775Z,33.27
2019-02-24T08:20:08.242Z,29.00
2019-02-24T08:22:36.743Z,31.33
2019-02-24T08:25:06.847Z,27.97
2019-02-24T08:27:35.456Z,29.73
2019-02-24T08:30:06.066Z,29.73
2019-02-24T08:32:34.627Z,26.77
2019-02-24T08:35:03.121Z,31.50
2019-02-24T08:37:31.684Z,28.43
2019-02-24T08:40:00.298Z,27.97
2019-02-24T08:42:28.792Z,27.30
2019-02-24T08:44:57.288Z,29.63
2019-02-24T08:47:25.759Z,29.27
2019-02-24T08:49:54.268Z,28.53
2019-02-24T08:52:22.733Z,27.10
2019-02-24T08:54:51.367Z,30.30
2019-02-24T08:57:19.859Z,29.63
2019-02-24T08:59:48.322Z,31.03
2019-02-24T09:02:16.774Z,29.40
2019-02-24T09:04:45.271Z,28.73
2019-02-24T09:07:13.927Z,28.20
2019-02-24T09:09:42.392Z,29.10
2019-02-24T09:12:10.899Z,29.23
2019-02-24T09:14:39.369Z,27.83
2019-02-24T09:17:07.936Z,29.10
2019-02-24T09:19:36.794Z,28.07
2019-02-24T09:22:05.509Z,28.67
2019-02-24T09:24:34.000Z,27.93
2019-02-24T09:27:02.463Z,28.87
2019-02-24T09:29:31.039Z,31.30
2019-02-24T09:31:59.576Z,28.40
2019-02-24T09:34:28.086Z,27.43
2019-02-24T09:36:56.556Z,27.07
2019-02-24T09:39:25.099Z,28.17
2019-02-24T09:41:53.655Z,25.80
2019-02-24T09:44:22.119Z,26.90
2019-02-24T09:46:50.680Z,28.33
2019-02-24T09:49:19.141Z,27.13
2019-02-24T09:51:47.644Z,25.93
2019-02-24T09:54:16.151Z,28.07
2019-02-24T09:56:44.720Z,30.10
2019-02-24T09:59:13.200Z,25.77
2019-02-24T10:01:41.775Z,24.73
2019-02-24T10:04:10.312Z,25.13
2019-02-24T10:06:38.891Z,28.50
2019-02-24T10:09:07.403Z,25.50
2019-02-24T10:11:36.004Z,24.23
2019-02-24T10:14:04.538Z,24.60
2019-02-24T10:16:33.205Z,23.03
2019-02-24T10:19:01.744Z,24.37
2019-02-24T10:21:30.207Z,24.13
2019-02-24T10:23:58.775Z,22.17
2019-02-24T10:26:27.250Z,21.60
2019-02-24T10:28:55.744Z,21.90
2019-02-24T10:31:24.222Z,23.77
2019-02-24T10:33:52.790Z,23.37
2019-02-24T10:36:21.696Z,22.93
2019-02-24T10:38:50.251Z,19.60
2019-02-24T10:41:18.783Z,22.20
2019-02-24T10:43:47.288Z,21.87
2019-02-24T10:46:15.765Z,21.13
2019-02-24T10:48:44.337Z,21.67
2019-02-24T10:51:12.804Z,20.57
2019-02-24T10:53:41.377Z,21.93
2019-02-24T10:56:09.909Z,22.13
2019-02-24T10:58:38.407Z,19.23
2019-02-24T11:01:07.000Z,20.20
2019-02-24T11:03:35.490Z,22.47
2019-02-24T11:06:03.961Z,25.27
2019-02-24T11:08:32.593Z,20.23
2019-02-24T11:11:01.052Z,20.60
2019-02-24T11:13:29.612Z,20.00
2019-02-24T11:15:58.105Z,20.97
2019-02-24T11:18:26.568Z,23.20
2019-02-24T11:20:55.075Z,21.73
2019-02-24T11:23:23.664Z,22.83
2019-02-24T11:25:52.359Z,21.07
2019-02-24T11:28:20.866Z,22.13
2019-02-24T11:30:49.506Z,22.93
2019-02-24T11:33:17.976Z,22.93
2019-02-24T11:35:46.635Z,22.63
2019-02-24T11:38:15.099Z,23.20
2019-02-24T11:40:43.705Z,21.70
2019-02-24T11:43:12.288Z,21.23
2019-02-24T11:45:40.827Z,21.47
2019-02-24T11:48:09.331Z,21.77
2019-02-24T11:50:37.881Z,21.57
2019-02-24T11:53:06.445Z,19.77
2019-02-24T11:55:34.921Z,23.13
2019-02-24T11:58:03.482Z,23.17
2019-02-24T12:00:32.112Z,19.67
2019-02-24T12:03:00.994Z,19.70
2019-02-24T12:05:29.727Z,20.73
2019-02-24T12:07:58.185Z,18.33
2019-02-24T12:10:26.776Z,20.43
2019-02-24T12:12:55.332Z,19.43
2019-02-24T12:15:23.862Z,21.10
2019-02-24T12:17:52.364Z,20.03
2019-02-24T12:20:20.931Z,20.00
2019-02-24T12:22:49.402Z,19.23
2019-02-24T12:25:18.145Z,19.93
2019-02-24T12:27:46.691Z,22.07
2019-02-24T12:30:16.629Z,18.10
2019-02-24T12:32:45.274Z,19.87
2019-02-24T12:35:13.899Z,18.30
2019-02-24T12:37:42.980Z,19.67
2019-02-24T12:40:15.816Z,18.13
2019-02-24T12:42:44.389Z,17.60
2019-02-24T12:45:12.920Z,17.47
2019-02-24T12:47:43.427Z,17.63
2019-02-24T12:50:14.760Z,17.53
2019-02-24T12:52:43.371Z,23.33
2019-02-24T12:55:12.271Z,19.77
2019-02-24T12:57:41.519Z,19.93
2019-02-24T13:00:14.804Z,20.43
2019-02-24T13:02:43.420Z,22.40
2019-02-24T13:05:12.060Z,21.90
2019-02-24T13:07:40.531Z,20.93
2019-02-24T13:10:12.141Z,20.87
2019-02-24T13:12:40.781Z,21.60
2019-02-24T13:15:09.791Z,21.47
2019-02-24T13:17:38.364Z,21.57
2019-02-24T13:20:10.111Z,20.87
2019-02-24T13:22:39.257Z,20.30
2019-02-24T13:25:10.445Z,25.83
2019-02-24T13:27:39.089Z,23.23
2019-02-24T13:30:12.976Z,19.30
2019-02-24T13:32:41.508Z,22.23
2019-02-24T13:35:10.223Z,20.83
2019-02-24T13:37:38.799Z,19.40
2019-02-24T13:40:12.815Z,20.07
2019-02-24T13:42:41.286Z,19.73
2019-02-24T13:45:15.744Z,19.57
2019-02-24T13:47:44.290Z,20.87
2019-02-24T13:50:13.866Z,20.10
2019-02-24T13:52:42.447Z,21.40
2019-02-24T13:55:12.738Z,18.87
2019-02-24T13:57:41.344Z,21.57
2019-02-24T14:00:16.000Z,19.80
2019-02-24T14:02:44.636Z,20.37
2019-02-24T14:05:14.037Z,20.40
2019-02-24T14:07:42.602Z,19.53
2019-02-24T14:10:13.002Z,18.83
2019-02-24T14:12:42.069Z,20.50
2019-02-24T14:15:13.072Z,20.20
2019-02-24T14:17:41.704Z,22.50
2019-02-24T14:20:12.508Z,23.47
2019-02-24T14:22:41.131Z,23.67
2019-02-24T14:25:11.272Z,23.37
2019-02-24T14:27:39.749Z,21.67
2019-02-24T14:30:16.995Z,22.03
2019-02-24T14:32:45.702Z,22.87
2019-02-24T14:35:19.803Z,21.67
2019-02-24T14:37:48.353Z,22.87
2019-02-24T14:40:17.073Z,21.50
2019-02-24T14:42:45.614Z,20.13
2019-02-24T14:45:17.187Z,21.87
2019-02-24T14:47:45.720Z,20.70
2019-02-24T14:50:14.454Z,18.77
2019-02-24T14:52:43.132Z,20.80
2019-02-24T14:55:13.358Z,19.40
2019-02-24T14:57:41.973Z,20.07
2019-02-24T15:00:19.466Z,18.70
2019-02-24T15:02:48.078Z,19.03
2019-02-24T15:05:16.992Z,17.10
2019-02-24T15:07:45.788Z,18.37
2019-02-24T15:10:19.604Z,17.30
2019-02-24T15:12:48.067Z,17.20
2019-02-24T15:15:19.846Z,19.00
2019-02-24T15:17:48.786Z,18.57
2019-02-24T15:20:19.184Z,18.55
2019-02-24T15:22:47.830Z,19.73
2019-02-24T15:25:17.699Z,19.17
2019-02-24T15:27:46.336Z,18.30
2019-02-24T15:30:26.494Z,19.90
2019-02-24T15:32:55.076Z,18.80
2019-02-24T15:35:23.629Z,18.50
2019-02-24T15:37:52.116Z,21.17
2019-02-24T15:40:20.683Z,18.12
2019-02-24T15:42:49.155Z,18.62
2019-02-24T15:45:17.797Z,18.27
2019-02-24T15:47:46.458Z,17.70
2019-02-24T15:50:15.172Z,18.07
2019-02-24T15:52:43.772Z,20.08
2019-02-24T15:55:17.091Z,20.40
2019-02-24T15:57:45.600Z,18.32
2019-02-24T16:00:19.140Z,18.67
2019-02-24T16:02:47.616Z,19.40
2019-02-24T16:05:16.199Z,21.48
2019-02-24T16:07:44.770Z,19.07
2019-02-24T16:10:18.661Z,22.93
2019-02-24T16:12:47.175Z,20.40
2019-02-24T16:15:17.448Z,17.15
2019-02-24T16:17:45.904Z,18.98
2019-02-24T16:20:22.883Z,20.62
2019-02-24T16:22:51.344Z,18.98
2019-02-24T16:25:19.867Z,20.35
2019-02-24T16:27:48.399Z,21.40
2019-02-24T16:30:17.120Z,20.40
2019-02-24T16:32:45.836Z,20.35
2019-02-24T16:35:15.872Z,18.57
2019-02-24T16:37:44.332Z,19.32
2019-02-24T16:40:21.016Z,21.20
2019-02-24T16:42:49.574Z,21.30
2019-02-24T16:45:18.208Z,18.85
2019-02-24T16:47:46.740Z,20.73
2019-02-24T16:50:23.784Z,17.93
2019-02-24T16:52:52.322Z,19.83
2019-02-24T16:55:20.964Z,20.90
2019-02-24T16:57:49.519Z,21.87
2019-02-24T17:00:25.364Z,22.27
2019-02-24T17:02:53.947Z,19.77
2019-02-24T17:05:22.923Z,22.20
2019-02-24T17:07:51.491Z,22.60
2019-02-24T17:10:27.373Z,21.63
2019-02-24T17:12:56.500Z,24.70
2019-02-24T17:15:24.961Z,24.00
2019-02-24T17:17:53.533Z,24.17
2019-02-24T17:20:29.954Z,22.90
2019-02-24T17:22:58.491Z,28.37
2019-02-24T17:25:26.983Z,32.33
2019-02-24T17:27:55.484Z,22.73
2019-02-24T17:30:24.188Z,25.17
2019-02-24T17:32:52.738Z,24.53
2019-02-24T17:35:21.501Z,25.13
2019-02-24T17:37:50.034Z,25.70
2019-02-24T17:40:20.182Z,25.20
2019-02-24T17:42:48.820Z,23.77
2019-02-24T17:45:18.387Z,26.23
2019-02-24T17:47:46.974Z,25.30
2019-02-24T17:50:16.791Z,26.17
2019-02-24T17:52:45.249Z,24.30
2019-02-24T17:55:14.757Z,24.37
2019-02-24T17:57:43.325Z,28.57
2019-02-24T18:00:32.551Z,23.00
2019-02-24T18:03:01.010Z,25.40
2019-02-24T18:05:29.517Z,21.77
2019-02-24T18:07:58.093Z,23.00
2019-02-24T18:10:26.626Z,24.50
2019-02-24T18:12:55.083Z,22.60
2019-02-24T18:15:23.666Z,29.73
2019-02-24T18:17:52.205Z,27.13
2019-02-24T18:20:22.200Z,27.70
2019-02-24T18:22:50.839Z,27.23
2019-02-24T18:25:19.441Z,25.93
2019-02-24T18:27:47.928Z,25.10
2019-02-24T18:30:22.410Z,22.73
2019-02-24T18:32:50.941Z,24.33
2019-02-24T18:35:19.498Z,26.87
2019-02-24T18:37:47.964Z,25.63
2019-02-24T18:40:16.992Z,28.30
2019-02-24T18:42:45.527Z,30.13
2019-02-24T18:45:14.763Z,27.63
2019-02-24T18:47:43.335Z,36.07
2019-02-24T18:50:14.873Z,32.83
2019-02-24T18:52:43.488Z,29.27
2019-02-24T18:55:12.688Z,29.60
2019-02-24T18:57:41.299Z,30.60
2019-02-24T19:00:20.256Z,28.30
2019-02-24T19:02:48.788Z,33.13
2019-02-24T19:05:17.414Z,28.73
2019-02-24T19:07:46.399Z,30.73
2019-02-24T19:10:21.324Z,29.73
2019-02-24T19:12:50.306Z,29.07
2019-02-24T19:15:22.970Z,28.23
2019-02-24T19:17:51.592Z,26.07
2019-02-24T19:20:21.500Z,32.90
2019-02-24T19:22:50.083Z,28.97
2019-02-24T19:25:18.701Z,30.47
2019-02-24T19:27:47.484Z,30.60
2019-02-24T19:30:19.903Z,32.77
2019-02-24T19:32:48.543Z,39.07
2019-02-24T19:35:18.468Z,31.20
2019-02-24T19:37:47.055Z,33.90
2019-02-24T19:40:17.745Z,34.93
2019-02-24T19:42:46.443Z,33.77
2019-02-24T19:45:25.369Z,32.80
2019-02-24T19:47:54.077Z,34.10
2019-02-24T19:50:22.694Z,32.57
2019-02-24T19:52:51.490Z,32.13
2019-02-24T19:55:20.059Z,29.97
2019-02-24T19:57:48.831Z,30.57
2019-02-24T20:00:20.453Z,31.53
2019-02-24T20:02:49.072Z,28.73
2019-02-24T20:05:18.073Z,32.07
2019-02-24T20:07:46.993Z,30.93
2019-02-24T20:10:20.550Z,33.33
2019-02-24T20:12:49.197Z,31.97
2019-02-24T20:15:17.904Z,33.30
2019-02-24T20:17:46.531Z,35.80
2019-02-24T20:20:16.855Z,34.43
2019-02-24T20:22:45.452Z,30.60
2019-02-24T20:25:18.842Z,33.53
2019-02-24T20:27:47.353Z,29.73
2019-02-24T20:30:18.791Z,34.17
2019-02-24T20:32:47.326Z,37.00
2019-02-24T20:35:15.820Z,34.57
2019-02-24T20:37:44.276Z,33.47
2019-02-24T20:40:13.044Z,31.63
2019-02-24T20:42:41.583Z,31.10
2019-02-24T20:45:15.945Z,30.27
2019-02-24T20:47:44.577Z,30.87
2019-02-24T20:50:15.592Z,33.33
2019-02-24T20:52:44.166Z,32.77
2019-02-24T20:55:12.985Z,31.37
2019-02-24T20:57:41.444Z,29.97
2019-02-24T21:00:19.221Z,33.43
2019-02-24T21:02:47.680Z,33.83
2019-02-24T21:05:16.685Z,34.30
2019-02-24T21:07:45.307Z,32.10
2019-02-24T21:10:13.948Z,33.10
2019-02-24T21:12:42.418Z,32.00
2019-02-24T21:15:13.668Z,34.67
2019-02-24T21:17:43.671Z,35.87
2019-02-24T21:20:31.917Z,35.77
2019-02-24T21:23:00.415Z,34.13
2019-02-24T21:25:29.031Z,36.93
2019-02-24T21:27:57.672Z,34.77
2019-02-24T21:30:27.081Z,33.00
2019-02-24T21:32:55.661Z,34.83
2019-02-24T21:35:24.202Z,29.73
2019-02-24T21:37:52.768Z,31.90
2019-02-24T21:40:23.425Z,33.70
2019-02-24T21:42:51.600Z,34.07
2019-02-24T21:45:22.781Z,36.03
2019-02-24T21:47:52.041Z,34.07
2019-02-24T21:50:20.727Z,33.00
2019-02-24T21:52:49.260Z,31.73
2019-02-24T21:55:18.035Z,34.97
2019-02-24T21:57:46.696Z,35.63
2019-02-24T22:00:20.152Z,32.73
2019-02-24T22:02:48.722Z,37.37
2019-02-24T22:05:17.359Z,38.43
2019-02-24T22:07:45.824Z,38.73
2019-02-24T22:10:15.633Z,39.03
2019-02-24T22:12:44.212Z,38.53
2019-02-24T22:15:15.788Z,36.43
2019-02-24T22:17:44.336Z,36.73
2019-02-24T22:20:14.889Z,34.97
2019-02-24T22:22:43.791Z,33.87
2019-02-24T22:25:14.497Z,37.80
2019-02-24T22:27:43.137Z,37.03
2019-02-24T22:30:14.508Z,35.23
2019-02-24T22:32:42.996Z,36.90
2019-02-24T22:35:11.625Z,37.17
2019-02-24T22:37:40.230Z,34.33
2019-02-24T22:40:16.412Z,38.30
2019-02-24T22:42:45.026Z,35.37
2019-02-24T22:45:22.440Z,38.40
2019-02-24T22:47:50.985Z,34.90
2019-02-24T22:50:19.638Z,36.63
2019-02-24T22:52:48.420Z,33.03
2019-02-24T22:55:17.958Z,33.27
2019-02-24T22:57:46.552Z,32.20
2019-02-24T23:00:34.700Z,35.63
2019-02-24T23:03:03.733Z,33.93
2019-02-24T23:05:32.261Z,38.10
2019-02-24T23:08:00.798Z,34.07
2019-02-24T23:10:29.362Z,39.03
2019-02-24T23:12:57.820Z,39.93
2019-02-24T23:15:26.303Z,35.83
2019-02-24T23:17:54.844Z,39.63
2019-02-24T23:20:23.334Z,39.23
2019-02-24T23:22:51.872Z,36.13
2019-02-24T23:25:20.355Z,37.20
2019-02-24T23:27:48.951Z,35.40
2019-02-24T23:30:17.524Z,36.87
2019-02-24T23:32:46.011Z,36.70
2019-02-24T23:35:14.576Z,39.53
2019-02-24T23:37:43.040Z,38.00
2019-02-24T23:40:11.635Z,35.40
2019-02-24T23:42:40.135Z,35.30
2019-02-24T23:45:11.006Z,39.57
2019-02-24T23:47:39.854Z,39.90
2019-02-24T23:50:11.031Z,37.00
2019-02-24T23:52:39.534Z,40.60
2019-02-24T23:55:09.512Z,43.50
2019-02-24T23:57:38.087Z,39.40
